Terminal Aerodrome Forecast
Issued by NWS Duluth, MN

Home | Current Version | Previous Version | Text Only | Print | Product List | Glossary On
Versions: 1 2 3 4 5 6 7 8 9 10 11 12 13 14 15 16 17 18 19 20 21 22 23 24 25 26
000
FTUS43 KDLH 041159 AAA
TAFINL
TAF AMD
KINL 041159Z 0412/0512 12006KT P6SM SCT025 BKN035 WS020/19030KT
      TEMPO 0412/0414 BKN020
     FM041600 15010G17KT P6SM FEW040
     FM042300 14007KT P6SM VCSH SCT035 BKN070
     FM050200 15006KT P6SM VCTS SCT035CB OVC050
     FM050900 16007KT 3SM BR VCSH OVC035=

USA.gov is the U.S. government's official web portal to all federal, state and local government web resources and services.